Time;durP1;ratioP1;P1;durP2;ratioP2;P2;SDS_P1;SDS_P2;PMS_P1;PMS_P2;Temp;Humidity;BMP_temperature;BMP_pressure;BME280_temperature;BME280_humidity;BME280_pressure;Samples;Min_cycle;Max_cycle;Signal;HPM_P1;HPM_P2
2022/04/30 00:00:29;;;;;;;14.10;8.18;;;6.10;99.90;;;;;;5033365;28;20049;-49
2022/04/30 00:02:57;;;;;;;12.70;7.95;;;6.10;99.90;;;;;;5054335;28;20041;-48
2022/04/30 00:05:29;;;;;;;16.35;8.73;;;6.00;99.90;;;;;;5051465;28;20060;-49
2022/04/30 00:07:55;;;;;;;16.17;9.02;;;6.00;99.90;;;;;;5052429;28;20045;-48
2022/04/30 00:10:20;;;;;;;17.65;8.60;;;6.00;99.90;;;;;;5051102;28;20132;-49
2022/04/30 00:12:46;;;;;;;15.20;8.98;;;6.00;99.90;;;;;;5051010;28;20040;-46
2022/04/30 00:15:12;;;;;;;15.75;8.73;;;5.90;99.90;;;;;;5051960;28;20051;-46
2022/04/30 00:17:37;;;;;;;19.30;8.38;;;5.90;99.90;;;;;;5052483;28;20047;-45
2022/04/30 00:20:05;;;;;;;15.27;8.85;;;5.90;99.90;;;;;;5050625;28;20043;-46
2022/04/30 00:22:31;;;;;;;15.35;9.25;;;5.80;99.90;;;;;;5050517;28;20055;-47
2022/04/30 00:24:57;;;;;;;16.20;8.68;;;5.80;99.90;;;;;;5052918;28;20037;-50
2022/04/30 00:27:22;;;;;;;12.82;8.20;;;5.70;99.90;;;;;;5070810;28;20553;-49
2022/04/30 00:29:48;;;;;;;17.67;9.27;;;5.70;99.90;;;;;;5054727;28;20483;-48
2022/04/30 00:32:15;;;;;;;16.20;8.77;;;5.70;99.90;;;;;;5050902;28;20415;-49
2022/04/30 00:34:41;;;;;;;15.95;8.88;;;5.70;99.90;;;;;;5050382;28;20041;-47
2022/04/30 00:37:06;;;;;;;15.13;8.85;;;5.80;99.90;;;;;;5050192;28;20072;-47
2022/04/30 00:39:34;;;;;;;17.27;8.60;;;5.70;99.90;;;;;;5050601;28;20065;-47
2022/04/30 00:42:00;;;;;;;17.33;9.73;;;5.60;99.90;;;;;;5050437;28;20146;-48
2022/04/30 00:44:27;;;;;;;15.25;8.75;;;5.60;99.90;;;;;;5050291;28;20060;-50
2022/04/30 00:46:53;;;;;;;17.05;8.50;;;5.60;99.90;;;;;;5050360;28;20412;-49
2022/04/30 00:49:19;;;;;;;18.33;8.98;;;5.50;99.90;;;;;;5051427;28;20044;-50
2022/04/30 00:51:45;;;;;;;14.60;9.15;;;5.60;99.90;;;;;;5049827;28;20041;-50
2022/04/30 00:54:13;;;;;;;16.30;9.02;;;5.50;99.90;;;;;;5051339;28;20048;-47
2022/04/30 00:56:43;;;;;;;17.25;9.23;;;5.40;99.90;;;;;;5069785;28;20032;-50
2022/04/30 00:59:11;;;;;;;21.88;9.32;;;5.50;99.90;;;;;;5051231;28;20045;-48
2022/04/30 01:01:37;;;;;;;15.63;9.07;;;5.50;99.90;;;;;;5051533;28;20607;-49
2022/04/30 01:04:07;;;;;;;16.92;8.77;;;5.40;99.90;;;;;;5033747;28;20045;-50
2022/04/30 01:06:50;;;;;;;14.00;8.68;;;5.40;99.90;;;;;;5050162;28;20037;-46
2022/04/30 01:09:23;;;;;;;19.90;9.57;;;5.30;99.90;;;;;;5050350;28;20178;-49
2022/04/30 01:11:55;;;;;;;15.80;10.07;;;5.30;99.90;;;;;;5050917;28;20037;-48
2022/04/30 01:14:21;;;;;;;16.67;8.05;;;5.20;99.90;;;;;;5069401;28;20029;-49
2022/04/30 01:16:47;;;;;;;18.80;9.30;;;5.20;99.90;;;;;;5059109;28;20025;-46
2022/04/30 01:19:18;;;;;;;15.95;9.02;;;5.10;99.90;;;;;;5050427;28;20112;-47
2022/04/30 01:21:50;;;;;;;17.25;9.75;;;5.10;99.90;;;;;;5031922;28;20048;-49
2022/04/30 01:24:28;;;;;;;16.38;9.43;;;5.10;99.90;;;;;;5050759;28;20048;-48
2022/04/30 01:26:55;;;;;;;18.63;10.20;;;5.10;99.90;;;;;;5050144;28;20465;-52
2022/04/30 01:29:23;;;;;;;17.02;9.30;;;5.10;99.90;;;;;;5050332;28;20503;-48
2022/04/30 01:37:29;;;;;;;18.83;10.20;;;5.10;99.90;;;;;;5069994;28;20269;-47
2022/04/30 01:39:56;;;;;;;16.35;8.77;;;5.00;99.90;;;;;;5069919;28;20541;-47
2022/04/30 01:42:22;;;;;;;17.88;10.10;;;5.00;99.90;;;;;;5069799;28;20036;-49
2022/04/30 01:44:48;;;;;;;16.35;9.50;;;5.10;99.90;;;;;;5069594;28;20849;-47
2022/04/30 01:47:18;;;;;;;16.35;10.43;;;5.00;99.90;;;;;;5069768;28;20064;-47
2022/04/30 01:49:44;;;;;;;18.67;9.38;;;4.90;99.90;;;;;;5070019;28;20142;-46
2022/04/30 01:52:13;;;;;;;15.52;9.43;;;4.90;99.90;;;;;;5069286;28;20044;-48
2022/04/30 01:54:38;;;;;;;17.13;9.85;;;4.90;99.90;;;;;;5069925;28;20112;-50
2022/04/30 01:57:04;;;;;;;16.00;10.35;;;4.90;99.90;;;;;;5069916;28;20116;-47
2022/04/30 01:59:31;;;;;;;20.13;10.30;;;4.90;99.90;;;;;;5069854;28;20048;-51
2022/04/30 02:01:59;;;;;;;20.17;10.38;;;4.80;99.90;;;;;;5069912;28;20068;-47
2022/04/30 02:04:25;;;;;;;16.08;10.57;;;4.80;99.90;;;;;;5070037;28;20090;-50
2022/04/30 02:06:51;;;;;;;17.00;9.82;;;4.80;99.90;;;;;;5072844;28;20063;-48
2022/04/30 02:09:18;;;;;;;17.52;10.48;;;4.70;99.90;;;;;;5073019;28;20037;-48
2022/04/30 02:11:45;;;;;;;19.80;10.45;;;4.80;99.90;;;;;;5073151;28;20041;-49
2022/04/30 02:14:13;;;;;;;16.73;10.20;;;4.70;99.90;;;;;;5072954;28;20044;-46
2022/04/30 02:16:40;;;;;;;17.25;10.50;;;4.70;99.90;;;;;;5073417;28;20117;-49
2022/04/30 02:19:07;;;;;;;16.50;9.80;;;4.70;99.90;;;;;;5073021;28;20047;-47
2022/04/30 02:21:34;;;;;;;18.70;10.55;;;4.70;99.90;;;;;;5072745;28;20049;-47
2022/04/30 02:24:01;;;;;;;16.35;10.82;;;4.60;99.90;;;;;;5073041;28;20097;-49
2022/04/30 02:26:27;;;;;;;17.98;10.23;;;4.60;99.90;;;;;;5054943;28;20178;-46
2022/04/30 02:28:57;;;;;;;15.98;10.18;;;4.70;99.90;;;;;;5073089;28;20051;-47
2022/04/30 02:31:25;;;;;;;19.08;10.40;;;4.70;99.90;;;;;;5072816;28;20127;-48
2022/04/30 02:33:56;;;;;;;18.95;9.95;;;4.70;99.90;;;;;;5072970;28;20465;-48
2022/04/30 02:36:30;;;;;;;18.17;10.43;;;4.70;99.90;;;;;;5072833;28;20048;-49
2022/04/30 02:38:57;;;;;;;19.25;11.05;;;4.60;99.90;;;;;;5073008;28;20129;-47
2022/04/30 02:41:23;;;;;;;19.58;10.75;;;4.70;99.90;;;;;;5072446;28;20124;-46
2022/04/30 02:43:52;;;;;;;18.10;10.38;;;4.70;99.90;;;;;;5072191;28;20131;-47
2022/04/30 02:46:22;;;;;;;16.40;10.15;;;4.70;99.90;;;;;;5072149;28;20051;-49
2022/04/30 02:48:48;;;;;;;18.60;10.15;;;4.70;99.90;;;;;;5072797;28;20098;-48
2022/04/30 02:51:17;;;;;;;16.30;10.55;;;4.70;99.90;;;;;;5072300;28;20434;-49
2022/04/30 02:53:43;;;;;;;16.85;10.20;;;4.70;99.90;;;;;;5072286;28;20040;-47
2022/04/30 02:56:12;;;;;;;18.08;9.82;;;4.70;99.90;;;;;;5072247;28;20076;-47
2022/04/30 03:01:22;;;;;;;16.48;10.95;;;4.70;99.90;;;;;;5072146;28;20094;-50
2022/04/30 03:03:48;;;;;;;19.45;10.57;;;4.60;99.90;;;;;;5072121;28;20377;-49
2022/04/30 03:06:17;;;;;;;19.08;10.02;;;4.60;99.90;;;;;;5071952;28;20093;-48
2022/04/30 03:08:48;;;;;;;14.32;10.02;;;4.60;99.90;;;;;;5072226;28;20032;-48
2022/04/30 03:11:14;;;;;;;17.08;10.10;;;4.70;99.90;;;;;;5071943;28;20413;-49
2022/04/30 03:13:40;;;;;;;15.80;10.88;;;4.70;99.90;;;;;;5072111;28;20162;-46
2022/04/30 03:21:44;;;;;;;19.17;11.95;;;4.70;99.90;;;;;;5071074;28;20052;-47
2022/04/30 03:24:11;;;;;;;19.20;11.10;;;4.80;99.90;;;;;;5071734;28;20044;-49
2022/04/30 03:26:37;;;;;;;18.73;11.43;;;4.70;99.90;;;;;;5072017;28;20390;-50
2022/04/30 03:29:03;;;;;;;14.95;9.77;;;4.70;99.90;;;;;;5071412;28;20032;-46
2022/04/30 03:31:30;;;;;;;17.73;10.68;;;4.70;99.90;;;;;;5071616;28;20055;-48
2022/04/30 03:33:56;;;;;;;16.50;10.52;;;4.80;99.90;;;;;;5071431;28;20055;-48
2022/04/30 03:36:23;;;;;;;17.02;10.77;;;4.70;99.90;;;;;;5071888;28;20181;-48
2022/04/30 03:38:48;;;;;;;18.38;10.57;;;4.80;99.90;;;;;;5071446;28;20093;-46
2022/04/30 03:41:17;;;;;;;18.65;11.02;;;4.70;99.90;;;;;;5071481;28;20080;-45
2022/04/30 03:43:43;;;;;;;21.08;10.45;;;4.80;99.90;;;;;;5071337;28;20025;-48
2022/04/30 03:46:09;;;;;;;18.30;10.65;;;4.80;99.90;;;;;;5071150;28;20067;-48
2022/04/30 03:48:35;;;;;;;17.73;10.70;;;4.80;99.90;;;;;;5071239;28;20474;-48
2022/04/30 03:51:01;;;;;;;22.50;11.88;;;4.80;99.90;;;;;;5070731;28;20036;-48
2022/04/30 03:53:26;;;;;;;18.88;11.00;;;4.80;99.90;;;;;;5071400;28;20044;-49
2022/04/30 03:55:53;;;;;;;19.13;10.80;;;4.80;99.90;;;;;;5051387;28;20045;-46
2022/04/30 03:58:19;;;;;;;17.85;11.60;;;4.80;99.90;;;;;;5051042;28;20119;-48
2022/04/30 04:00:48;;;;;;;17.98;11.20;;;4.70;99.90;;;;;;5069750;28;20070;-50
2022/04/30 04:03:14;;;;;;;15.23;10.00;;;4.80;99.90;;;;;;5071071;28;20036;-48
2022/04/30 04:05:40;;;;;;;17.52;11.00;;;4.90;99.90;;;;;;5071045;28;20047;-47
2022/04/30 04:08:11;;;;;;;16.80;10.80;;;4.90;99.90;;;;;;5053502;28;20041;-48
2022/04/30 04:10:38;;;;;;;19.17;11.07;;;4.80;99.90;;;;;;5070940;28;20495;-51
2022/04/30 04:18:32;;;;;;;21.45;11.45;;;4.90;99.90;;;;;;5070605;28;20047;-46
2022/04/30 04:20:58;;;;;;;18.95;11.63;;;4.90;99.90;;;;;;5052386;28;20032;-49
2022/04/30 04:23:23;;;;;;;22.88;12.45;;;4.90;99.90;;;;;;5070859;28;20036;-48
2022/04/30 04:26:01;;;;;;;20.00;12.25;;;4.90;99.90;;;;;;5070781;28;20040;-47
2022/04/30 04:28:29;;;;;;;18.13;11.32;;;4.90;99.90;;;;;;5070227;28;20383;-47
2022/04/30 04:30:57;;;;;;;19.48;12.05;;;4.80;99.90;;;;;;5070410;28;20048;-50
2022/04/30 04:33:23;;;;;;;19.17;12.15;;;4.80;99.90;;;;;;5071037;28;20036;-48
2022/04/30 04:35:48;;;;;;;17.08;11.82;;;4.80;99.90;;;;;;5053026;28;20519;-47
2022/04/30 04:38:14;;;;;;;19.08;12.30;;;4.80;99.90;;;;;;5052846;28;20028;-49
2022/04/30 04:40:40;;;;;;;21.23;12.85;;;4.90;99.90;;;;;;5070867;28;20072;-46
2022/04/30 04:43:05;;;;;;;19.98;13.30;;;4.90;99.90;;;;;;5059032;28;20036;-45
2022/04/30 04:45:31;;;;;;;22.95;13.52;;;5.00;99.90;;;;;;5050082;28;20351;-46
2022/04/30 04:47:57;;;;;;;19.40;12.25;;;5.00;99.90;;;;;;5067118;28;20047;-47
2022/04/30 04:50:23;;;;;;;20.17;13.23;;;4.90;99.90;;;;;;5050475;28;20098;-46
2022/04/30 04:52:49;;;;;;;19.48;12.00;;;4.90;99.90;;;;;;5050433;28;20408;-47
2022/04/30 04:55:17;;;;;;;21.83;13.60;;;4.90;99.90;;;;;;5050212;28;20045;-47
2022/04/30 04:57:43;;;;;;;22.38;13.52;;;5.10;99.90;;;;;;5050363;28;20039;-51
2022/04/30 05:00:11;;;;;;;19.30;13.50;;;5.20;99.90;;;;;;5050346;28;20037;-46
2022/04/30 05:02:37;;;;;;;20.88;13.75;;;5.20;99.90;;;;;;5050253;28;20047;-47
2022/04/30 05:05:03;;;;;;;22.70;12.85;;;5.20;99.90;;;;;;5050457;28;20393;-47
2022/04/30 05:07:29;;;;;;;23.77;13.05;;;5.30;99.90;;;;;;5050454;28;20041;-48
2022/04/30 05:09:55;;;;;;;20.95;13.23;;;5.30;99.90;;;;;;5050425;28;20033;-49
2022/04/30 05:12:20;;;;;;;19.17;13.93;;;5.40;99.90;;;;;;5050353;28;20080;-46
2022/04/30 05:14:48;;;;;;;21.98;13.70;;;5.50;99.90;;;;;;5050795;28;20299;-47
2022/04/30 05:17:14;;;;;;;23.13;13.48;;;5.60;99.90;;;;;;5070431;28;20048;-47
2022/04/30 05:19:40;;;;;;;19.58;13.18;;;5.70;99.90;;;;;;5070565;28;20040;-48
2022/04/30 05:22:05;;;;;;;20.55;13.32;;;5.70;99.90;;;;;;5051564;28;20040;-47
2022/04/30 05:24:32;;;;;;;18.25;13.30;;;5.80;99.90;;;;;;5069927;28;20480;-48
2022/04/30 05:26:58;;;;;;;21.98;13.32;;;5.80;99.90;;;;;;5069860;28;20048;-46
2022/04/30 05:29:23;;;;;;;20.70;13.90;;;5.90;99.90;;;;;;5069821;28;20040;-50
2022/04/30 05:31:49;;;;;;;19.38;12.73;;;5.90;99.90;;;;;;5070154;28;20036;-47
2022/04/30 05:34:15;;;;;;;20.27;12.57;;;5.90;99.90;;;;;;5070064;28;20093;-49
2022/04/30 05:36:41;;;;;;;20.05;12.40;;;6.00;99.90;;;;;;5069840;28;20037;-49
2022/04/30 05:39:06;;;;;;;21.25;13.18;;;6.10;99.90;;;;;;5052525;28;20446;-48
2022/04/30 05:41:32;;;;;;;18.13;12.73;;;6.10;99.90;;;;;;5073934;28;20082;-47
2022/04/30 05:43:58;;;;;;;18.80;12.82;;;6.20;99.90;;;;;;5073625;28;20502;-47
2022/04/30 05:46:23;;;;;;;21.92;11.95;;;6.30;99.90;;;;;;5073763;28;20044;-48
2022/04/30 05:48:49;;;;;;;20.23;12.50;;;6.40;99.90;;;;;;5039116;28;20114;-49
2022/04/30 05:51:15;;;;;;;19.50;12.68;;;6.50;99.90;;;;;;5073474;28;20115;-49
2022/04/30 05:53:40;;;;;;;22.88;12.63;;;6.60;99.90;;;;;;5073401;28;20477;-47
2022/04/30 05:56:07;;;;;;;22.63;11.68;;;6.70;99.90;;;;;;5060707;28;20032;-45
2022/04/30 05:58:33;;;;;;;17.30;11.68;;;6.70;99.90;;;;;;5057172;28;20045;-47
2022/04/30 06:00:59;;;;;;;18.58;12.02;;;6.80;99.90;;;;;;5057770;28;20080;-46
2022/04/30 06:03:24;;;;;;;18.02;11.40;;;6.90;99.90;;;;;;5037439;28;20534;-49
2022/04/30 06:05:50;;;;;;;17.02;11.38;;;6.90;99.90;;;;;;5040131;28;20107;-50
2022/04/30 06:08:15;;;;;;;16.05;10.82;;;7.00;99.90;;;;;;5055977;28;20043;-46
2022/04/30 06:10:41;;;;;;;15.85;10.88;;;7.10;99.90;;;;;;5055507;28;20044;-46
2022/04/30 06:13:07;;;;;;;16.75;11.05;;;7.10;99.90;;;;;;5057437;28;20045;-47
2022/04/30 06:15:33;;;;;;;17.58;11.45;;;7.10;99.90;;;;;;5063628;28;20182;-47
2022/04/30 06:17:59;;;;;;;19.75;11.40;;;7.20;99.90;;;;;;5065922;28;20089;-49
2022/04/30 06:20:25;;;;;;;16.88;10.82;;;7.30;99.90;;;;;;5067311;28;20044;-47
2022/04/30 06:22:50;;;;;;;17.50;11.32;;;7.40;99.90;;;;;;5053039;28;20044;-47
2022/04/30 06:25:16;;;;;;;16.75;11.45;;;7.40;99.90;;;;;;5031245;28;20051;-47
2022/04/30 06:27:42;;;;;;;18.40;11.60;;;7.40;99.90;;;;;;5030570;28;20116;-48
2022/04/30 06:30:09;;;;;;;17.45;11.05;;;7.50;99.90;;;;;;5032765;28;20045;-48
2022/04/30 06:32:35;;;;;;;19.15;11.20;;;7.60;99.90;;;;;;5029200;28;20132;-48
2022/04/30 06:35:04;;;;;;;15.43;10.18;;;7.60;99.90;;;;;;5031872;28;20037;-50
2022/04/30 06:37:30;;;;;;;18.15;11.55;;;7.70;99.90;;;;;;5031461;28;20184;-46
2022/04/30 06:39:55;;;;;;;20.55;10.80;;;7.70;99.90;;;;;;5029902;28;20404;-51
2022/04/30 06:42:21;;;;;;;19.05;10.60;;;7.80;99.90;;;;;;5031590;28;20037;-48
2022/04/30 06:44:47;;;;;;;15.75;10.57;;;7.90;99.90;;;;;;5028286;28;20053;-48
2022/04/30 06:47:14;;;;;;;17.00;9.38;;;7.90;99.90;;;;;;5029470;28;20045;-47
2022/04/30 06:49:39;;;;;;;17.75;10.30;;;8.00;99.90;;;;;;5029550;28;20163;-49
2022/04/30 06:52:06;;;;;;;15.60;10.25;;;8.00;99.90;;;;;;5027115;28;20088;-49
2022/04/30 06:57:20;;;;;;;15.73;10.57;;;8.20;99.90;;;;;;5031034;28;20103;-48
2022/04/30 06:59:46;;;;;;;14.40;9.65;;;8.30;99.90;;;;;;5034485;28;20025;-47
2022/04/30 07:02:22;;;;;;;19.88;10.20;;;8.30;99.90;;;;;;5032222;28;20033;-50
2022/04/30 07:04:50;;;;;;;15.23;10.07;;;8.40;99.90;;;;;;5029388;28;20151;-45
2022/04/30 07:07:20;;;;;;;16.75;9.82;;;8.60;99.90;;;;;;5032016;28;20041;-47
2022/04/30 07:09:46;;;;;;;21.27;10.05;;;8.70;99.90;;;;;;5029795;28;20045;-48
2022/04/30 07:12:14;;;;;;;14.43;9.65;;;8.70;99.90;;;;;;5032438;28;20185;-48
2022/04/30 07:14:40;;;;;;;13.88;9.85;;;8.80;99.90;;;;;;5028120;28;20021;-47
2022/04/30 07:17:11;;;;;;;17.67;9.77;;;8.90;99.90;;;;;;5031161;28;20483;-49
2022/04/30 07:19:37;;;;;;;18.58;9.20;;;9.20;99.90;;;;;;5027802;28;20143;-50
2022/04/30 07:22:03;;;;;;;18.70;9.32;;;9.20;99.90;;;;;;5027938;28;20029;-47
2022/04/30 07:24:31;;;;;;;16.38;8.63;;;9.40;99.90;;;;;;5026608;28;20676;-48
2022/04/30 07:26:57;;;;;;;15.07;9.38;;;9.40;99.90;;;;;;5030181;28;20038;-48
2022/04/30 07:29:23;;;;;;;14.02;9.32;;;9.50;99.90;;;;;;5029527;28;20094;-47
2022/04/30 07:31:49;;;;;;;17.67;9.70;;;9.50;99.90;;;;;;5025908;28;20076;-46
2022/04/30 07:34:14;;;;;;;13.48;9.18;;;9.60;99.90;;;;;;5029058;28;20160;-47
2022/04/30 07:36:40;;;;;;;14.15;9.50;;;9.70;99.90;;;;;;5028322;28;20049;-47
2022/04/30 07:39:07;;;;;;;17.02;9.10;;;9.80;99.90;;;;;;5027406;28;20056;-48
2022/04/30 07:41:32;;;;;;;14.63;9.68;;;9.70;99.90;;;;;;5030016;28;20120;-49
2022/04/30 07:43:59;;;;;;;14.80;8.65;;;9.70;99.90;;;;;;5031907;28;20116;-48
2022/04/30 07:46:25;;;;;;;16.77;9.27;;;9.70;99.90;;;;;;5031603;28;20053;-46
2022/04/30 07:48:51;;;;;;;18.35;10.00;;;9.50;99.90;;;;;;5025710;28;20127;-47
2022/04/30 07:54:02;;;;;;;14.77;9.93;;;9.50;99.90;;;;;;5026521;28;20472;-46
2022/04/30 07:56:28;;;;;;;16.23;9.50;;;9.50;99.90;;;;;;5027674;28;20385;-46
2022/04/30 07:58:54;;;;;;;17.65;9.60;;;9.70;99.90;;;;;;5027535;28;20059;-47
2022/04/30 08:01:20;;;;;;;15.40;8.75;;;9.70;99.90;;;;;;5029407;28;20404;-48
2022/04/30 08:03:46;;;;;;;14.90;8.85;;;9.70;99.90;;;;;;5026651;28;20047;-47
2022/04/30 08:06:11;;;;;;;17.13;9.05;;;9.90;99.90;;;;;;5027170;28;20485;-48
2022/04/30 08:08:38;;;;;;;15.15;9.40;;;10.00;99.90;;;;;;5028363;28;20152;-47
2022/04/30 08:11:04;;;;;;;18.58;9.48;;;10.00;99.90;;;;;;5026504;28;20335;-47
2022/04/30 08:13:30;;;;;;;18.85;8.85;;;10.20;99.90;;;;;;5048897;28;20264;-47
2022/04/30 08:15:55;;;;;;;18.95;10.02;;;10.30;99.90;;;;;;5026098;28;20041;-48
2022/04/30 08:18:21;;;;;;;14.68;9.43;;;10.20;99.90;;;;;;5027179;28;20083;-46
2022/04/30 08:20:47;;;;;;;15.48;9.85;;;10.40;99.90;;;;;;5027500;28;20041;-48
2022/04/30 08:23:13;;;;;;;14.52;9.77;;;10.40;99.90;;;;;;5027124;28;20460;-48
2022/04/30 08:25:39;;;;;;;14.57;8.63;;;10.60;99.90;;;;;;5038763;28;20037;-48
2022/04/30 08:28:06;;;;;;;14.90;8.20;;;10.90;99.90;;;;;;5047047;28;20040;-49
2022/04/30 08:30:32;;;;;;;14.80;8.13;;;10.90;99.90;;;;;;5031208;28;20631;-49
2022/04/30 08:32:59;;;;;;;12.35;7.78;;;11.10;99.90;;;;;;5033674;28;20099;-49
2022/04/30 08:35:25;;;;;;;15.23;7.22;;;11.20;99.90;;;;;;5030601;28;20076;-49
2022/04/30 08:37:51;;;;;;;13.68;7.10;;;11.30;99.90;;;;;;5028118;28;20045;-50
2022/04/30 08:40:17;;;;;;;10.30;4.90;;;11.30;99.90;;;;;;5031268;28;20495;-48
2022/04/30 08:42:43;;;;;;;10.38;5.80;;;11.40;99.90;;;;;;5032862;28;20512;-50
2022/04/30 08:45:09;;;;;;;11.45;6.32;;;11.30;99.90;;;;;;5031880;28;20045;-49
2022/04/30 08:47:42;;;;;;;10.30;4.60;;;11.50;99.90;;;;;;5029564;28;20046;-47
2022/04/30 08:50:13;;;;;;;8.35;5.07;;;11.50;99.90;;;;;;5031853;28;20037;-48
2022/04/30 08:52:39;;;;;;;11.40;5.60;;;11.40;99.90;;;;;;5042532;28;20524;-47
2022/04/30 08:55:07;;;;;;;14.63;6.05;;;11.30;99.90;;;;;;5028527;28;20041;-47
2022/04/30 08:57:33;;;;;;;12.18;6.80;;;11.30;99.90;;;;;;5030568;28;20441;-49
2022/04/30 08:59:59;;;;;;;12.57;6.50;;;11.40;99.90;;;;;;5028798;28;20128;-48
2022/04/30 09:02:26;;;;;;;11.82;6.18;;;11.30;99.90;;;;;;5028626;28;20377;-48
2022/04/30 09:04:52;;;;;;;9.82;6.18;;;11.40;99.90;;;;;;5028212;28;20044;-47
2022/04/30 09:07:22;;;;;;;12.70;6.72;;;11.40;99.90;;;;;;5032180;28;20033;-50
2022/04/30 09:10:00;;;;;;;13.27;6.63;;;11.50;99.90;;;;;;5030467;28;20041;-49
2022/04/30 09:12:28;;;;;;;13.25;7.05;;;11.40;99.90;;;;;;5028703;28;20037;-50
2022/04/30 09:14:54;;;;;;;12.95;7.18;;;11.40;99.90;;;;;;5029793;28;20453;-48
2022/04/30 09:17:22;;;;;;;14.07;7.85;;;11.40;99.90;;;;;;5029112;28;20366;-48
2022/04/30 09:19:51;;;;;;;15.52;7.20;;;11.40;99.90;;;;;;5034130;28;20033;-49
2022/04/30 09:22:30;;;;;;;12.23;6.38;;;11.50;99.90;;;;;;5028842;28;20045;-48
2022/04/30 09:24:57;;;;;;;10.13;6.80;;;11.70;99.90;;;;;;5036988;28;20528;-51
2022/04/30 09:27:23;;;;;;;13.55;6.65;;;11.70;99.90;;;;;;5031238;28;20049;-48
2022/04/30 09:29:49;;;;;;;13.25;6.47;;;11.60;99.90;;;;;;5035127;28;20030;-45
2022/04/30 09:32:19;;;;;;;10.18;5.75;;;11.70;99.90;;;;;;5033608;28;20055;-50
2022/04/30 09:37:49;;;;;;;10.90;5.75;;;11.70;99.90;;;;;;5033426;28;20044;-50
2022/04/30 09:40:14;;;;;;;;;;;11.70;99.90;;;;;;5033665;28;20060;-47
2022/04/30 09:42:46;;;;;;;9.68;4.78;;;11.70;99.90;;;;;;5034643;28;19917;-50
2022/04/30 09:45:33;;;;;;;9.90;6.60;;;11.60;99.90;;;;;;5033623;28;20053;-48
2022/04/30 09:48:00;;;;;;;12.70;6.93;;;11.50;99.90;;;;;;5033013;28;21740;-50
2022/04/30 09:56:13;;;;;;;12.70;6.35;;;11.10;99.90;;;;;;5033093;28;20049;-49
2022/04/30 09:58:40;;;;;;;12.27;6.40;;;10.90;99.90;;;;;;5032186;28;20033;-49
2022/04/30 10:01:07;;;;;;;9.88;5.88;;;10.90;99.90;;;;;;5033631;28;20536;-47
2022/04/30 10:03:33;;;;;;;12.68;6.55;;;10.80;99.90;;;;;;5031135;28;20124;-49
2022/04/30 10:06:04;;;;;;;13.05;6.57;;;10.70;99.90;;;;;;5032415;28;20037;-47
2022/04/30 10:08:35;;;;;;;11.63;6.85;;;10.70;99.90;;;;;;5030877;28;20041;-49
2022/04/30 10:11:17;;;;;;;12.45;7.32;;;10.70;99.90;;;;;;5031467;28;21915;-49
2022/04/30 10:14:08;;;;;;;12.65;6.95;;;10.80;99.90;;;;;;5032666;28;20477;-49
2022/04/30 10:16:34;;;;;;;16.40;7.03;;;10.70;99.90;;;;;;5030961;28;20096;-49
2022/04/30 10:19:11;;;;;;;13.60;7.30;;;10.70;99.90;;;;;;5033923;28;20048;-48
2022/04/30 10:21:38;;;;;;;11.35;6.35;;;10.80;99.90;;;;;;5028944;28;22233;-51
2022/04/30 10:24:05;;;;;;;10.05;6.38;;;10.70;99.90;;;;;;5034348;28;20041;-49
2022/04/30 10:26:32;;;;;;;12.40;6.35;;;10.70;99.90;;;;;;5029357;28;20033;-47
2022/04/30 10:29:08;;;;;;;10.40;6.15;;;10.80;99.90;;;;;;5032231;28;20061;-52
2022/04/30 10:31:43;;;;;;;10.65;5.88;;;10.80;99.90;;;;;;5032842;28;20099;-46
2022/04/30 10:34:09;;;;;;;9.43;6.25;;;11.00;99.90;;;;;;5043783;28;20045;-47
2022/04/30 10:36:38;;;;;;;11.27;6.43;;;11.00;99.90;;;;;;5032921;28;20037;-50
2022/04/30 10:39:09;;;;;;;9.27;6.00;;;10.90;99.90;;;;;;5034262;28;20072;-47
2022/04/30 10:41:45;;;;;;;11.55;6.65;;;11.00;99.90;;;;;;5032189;28;20076;-48
2022/04/30 10:44:13;;;;;;;10.52;5.82;;;11.10;99.90;;;;;;5049903;28;20450;-47
2022/04/30 10:46:44;;;;;;;11.02;6.05;;;11.20;99.90;;;;;;5052848;28;20045;-48
2022/04/30 10:49:10;;;;;;;14.80;6.75;;;11.30;99.90;;;;;;5051808;28;20082;-47
2022/04/30 10:51:41;;;;;;;9.32;6.20;;;11.30;99.90;;;;;;5052582;28;20087;-50
2022/04/30 10:54:13;;;;;;;9.85;6.55;;;11.40;99.90;;;;;;5052781;28;20648;-46
2022/04/30 10:56:39;;;;;;;9.55;6.10;;;11.40;99.90;;;;;;5052328;28;20041;-48
2022/04/30 10:59:06;;;;;;;10.40;6.25;;;11.60;99.90;;;;;;5032980;28;20049;-49
2022/04/30 11:01:33;;;;;;;10.88;5.82;;;11.70;99.90;;;;;;5032908;28;20124;-47
2022/04/30 11:04:01;;;;;;;10.13;6.25;;;11.60;99.90;;;;;;5032839;28;20072;-52
2022/04/30 11:06:30;;;;;;;8.23;5.93;;;11.70;99.90;;;;;;5034333;28;20099;-48
2022/04/30 11:09:07;;;;;;;10.30;5.57;;;11.90;99.90;;;;;;5032922;28;20408;-49
2022/04/30 11:11:35;;;;;;;11.27;6.20;;;12.00;99.90;;;;;;5032920;28;20042;-47
2022/04/30 11:14:02;;;;;;;16.00;6.80;;;11.90;99.90;;;;;;5051130;28;20552;-48
2022/04/30 11:16:32;;;;;;;11.45;5.97;;;11.80;99.90;;;;;;5052512;28;20044;-49
2022/04/30 11:19:05;;;;;;;9.88;5.53;;;11.90;99.90;;;;;;5052461;28;20129;-46
2022/04/30 11:21:36;;;;;;;10.65;5.30;;;11.80;99.90;;;;;;5052128;28;20081;-46
2022/04/30 11:24:03;;;;;;;9.73;5.60;;;12.00;99.90;;;;;;5052703;28;20032;-47
2022/04/30 11:26:30;;;;;;;9.10;5.22;;;12.00;99.90;;;;;;5052442;28;20501;-46
2022/04/30 11:28:57;;;;;;;11.70;5.53;;;12.10;99.90;;;;;;5052333;28;20099;-49
2022/04/30 11:31:23;;;;;;;13.98;5.57;;;12.10;99.90;;;;;;5052117;28;20041;-50
2022/04/30 11:33:49;;;;;;;9.27;4.85;;;12.10;99.90;;;;;;5052413;28;20048;-46
2022/04/30 11:36:15;;;;;;;10.23;5.15;;;12.20;99.90;;;;;;5052207;28;20396;-50
2022/04/30 11:38:51;;;;;;;9.95;5.00;;;12.30;99.90;;;;;;5051973;28;20108;-47
2022/04/30 11:41:17;;;;;;;9.82;5.15;;;12.30;99.90;;;;;;5052131;28;20040;-50
2022/04/30 11:43:43;;;;;;;10.35;5.07;;;12.50;99.90;;;;;;5051981;28;20037;-49
2022/04/30 11:46:08;;;;;;;9.57;5.00;;;12.40;99.90;;;;;;5051623;28;20127;-46
2022/04/30 11:48:39;;;;;;;8.95;5.13;;;12.40;99.90;;;;;;5052086;28;20040;-49
2022/04/30 11:51:06;;;;;;;9.27;4.72;;;12.30;99.90;;;;;;5051684;28;20037;-49
2022/04/30 11:53:33;;;;;;;10.23;4.85;;;12.40;99.90;;;;;;5051924;28;20053;-47
2022/04/30 11:55:59;;;;;;;8.05;4.68;;;12.30;99.90;;;;;;5051847;28;20037;-49
2022/04/30 11:58:25;;;;;;;9.73;4.80;;;12.30;99.90;;;;;;5052140;28;20124;-49
2022/04/30 12:00:54;;;;;;;10.57;4.68;;;12.30;99.90;;;;;;5050329;28;20123;-48
2022/04/30 12:03:27;;;;;;;10.40;4.53;;;12.30;99.90;;;;;;5051788;28;20044;-47
2022/04/30 12:05:53;;;;;;;10.27;4.75;;;12.20;99.90;;;;;;5051769;28;20037;-47
2022/04/30 12:08:18;;;;;;;6.97;4.22;;;12.40;99.90;;;;;;5051447;28;20041;-49
2022/04/30 12:10:57;;;;;;;8.27;3.85;;;12.20;99.90;;;;;;5051383;28;20033;-49
2022/04/30 12:13:26;;;;;;;8.52;4.20;;;12.40;99.90;;;;;;5050031;28;20044;-49
2022/04/30 12:16:03;;;;;;;6.55;4.00;;;12.40;99.90;;;;;;5051397;28;20036;-50
2022/04/30 12:24:43;;;;;;;7.57;4.82;;;12.20;99.90;;;;;;5051142;28;20064;-46
2022/04/30 12:27:10;;;;;;;7.40;4.00;;;12.50;99.90;;;;;;5051434;28;20123;-45
2022/04/30 12:29:37;;;;;;;8.27;4.53;;;12.50;99.90;;;;;;5037153;28;20037;-48
2022/04/30 12:32:04;;;;;;;7.28;3.97;;;12.60;99.90;;;;;;5031090;28;20746;-48
2022/04/30 12:34:40;;;;;;;8.27;3.95;;;12.50;99.90;;;;;;5032510;28;20056;-46
2022/04/30 12:37:07;;;;;;;6.45;3.83;;;12.70;99.90;;;;;;5031208;28;20056;-48
2022/04/30 12:39:33;;;;;;;9.20;4.00;;;12.70;99.90;;;;;;5031227;28;20038;-49
2022/04/30 12:41:59;;;;;;;9.80;4.20;;;12.80;99.90;;;;;;5029834;28;20051;-46
2022/04/30 12:44:27;;;;;;;7.38;4.13;;;12.90;99.90;;;;;;5030569;28;20457;-49
2022/04/30 12:46:53;;;;;;;6.70;4.13;;;12.80;99.90;;;;;;5030199;28;20037;-49
2022/04/30 12:49:20;;;;;;;9.07;4.32;;;12.70;99.90;;;;;;5031862;28;20397;-51
2022/04/30 12:51:48;;;;;;;6.60;3.75;;;12.80;99.90;;;;;;5030685;28;20041;-50
2022/04/30 12:54:16;;;;;;;7.25;4.05;;;12.70;99.90;;;;;;5030921;28;20503;-48
2022/04/30 12:56:43;;;;;;;7.75;3.75;;;12.70;99.90;;;;;;5031015;28;20045;-48
2022/04/30 12:59:10;;;;;;;6.50;4.43;;;12.70;99.90;;;;;;5030760;28;20088;-50
2022/04/30 13:01:37;;;;;;;7.30;4.82;;;12.60;99.90;;;;;;5030985;28;20373;-46
2022/04/30 13:04:03;;;;;;;9.55;4.53;;;12.60;99.90;;;;;;5039184;28;20068;-48
2022/04/30 13:06:30;;;;;;;11.95;5.03;;;12.70;99.90;;;;;;5050712;28;20110;-47
2022/04/30 13:14:26;;;;;;;8.18;3.90;;;12.60;99.90;;;;;;5039025;28;20507;-47
2022/04/30 13:16:52;;;;;;;7.38;4.45;;;12.40;99.90;;;;;;5030903;28;20038;-46
2022/04/30 13:19:18;;;;;;;6.35;4.28;;;12.40;99.90;;;;;;5030354;28;20041;-48
2022/04/30 13:21:46;;;;;;;7.43;4.75;;;12.40;99.90;;;;;;5031047;28;20048;-47
2022/04/30 13:24:18;;;;;;;7.70;4.35;;;12.70;99.90;;;;;;5036116;28;20033;-47
2022/04/30 13:26:44;;;;;;;8.10;4.80;;;12.70;99.90;;;;;;5048218;28;20036;-47